createdAt,value
2022-09-18T00:01:41.471Z,100110.59
2022-09-18T00:04:10.721Z,100106.69
2022-09-18T00:06:40.633Z,100106.22
2022-09-18T00:09:10.059Z,100106.59
2022-09-18T00:11:39.798Z,100108.34
2022-09-18T00:14:08.715Z,100111.56
2022-09-18T00:16:35.634Z,100108.31
2022-09-18T00:19:02.687Z,100109.44
2022-09-18T00:21:31.731Z,100107.56
2022-09-18T00:24:01.225Z,100111.34
2022-09-18T00:26:28.252Z,100110.06
2022-09-18T00:28:55.198Z,100109.31
2022-09-18T00:31:29.666Z,100111.91
2022-09-18T00:33:57.463Z,100107.97
2022-09-18T00:36:23.967Z,100106.53
2022-09-18T00:38:51.153Z,100104.66
2022-09-18T00:41:19.436Z,100118.56
2022-09-18T00:43:45.980Z,100115.75
2022-09-18T00:46:15.368Z,100117.25
2022-09-18T00:49:17.644Z,100115.84
2022-09-18T00:51:47.561Z,100123.22
2022-09-18T00:54:13.899Z,100117.53
2022-09-18T00:56:40.627Z,100126.31
2022-09-18T00:59:12.549Z,100129.72
2022-09-18T01:01:38.947Z,100128.53
2022-09-18T01:04:11.482Z,100121.84
2022-09-18T01:07:05.987Z,100137.22
2022-09-18T01:09:57.208Z,100137.13
2022-09-18T01:12:38.993Z,100143.66
2022-09-18T01:15:34.944Z,100139.84
2022-09-18T01:18:34.785Z,100153.56
2022-09-18T01:21:16.373Z,100133.13
2022-09-18T01:24:01.125Z,100138.38
2022-09-18T01:26:46.123Z,100139.69
2022-09-18T01:29:30.829Z,100136.78
2022-09-18T01:32:11.238Z,100130.06
2022-09-18T01:34:57.852Z,100127.16
2022-09-18T01:37:37.538Z,100127.06
2022-09-18T01:40:17.611Z,100119.97
2022-09-18T01:42:47.455Z,100130.19
2022-09-18T01:45:19.439Z,100136.72
2022-09-18T01:47:52.595Z,100133.16
2022-09-18T01:50:19.810Z,100145.22
2022-09-18T01:52:57.087Z,100146.09
2022-09-18T01:55:28.365Z,100146.97
2022-09-18T01:58:07.258Z,100147.78
2022-09-18T02:00:37.092Z,100148.28
2022-09-18T02:03:39.509Z,100144.47
2022-09-18T02:06:13.530Z,100143.16
2022-09-18T02:08:47.828Z,100143.25
2022-09-18T02:11:17.212Z,100137.38
2022-09-18T02:13:49.089Z,100143.78
2022-09-18T02:16:24.784Z,100143.72
2022-09-18T02:18:56.484Z,100148.31
2022-09-18T02:21:27.433Z,100154.00
2022-09-18T02:24:00.514Z,100144.00
2022-09-18T02:26:27.060Z,100140.75
2022-09-18T02:28:55.798Z,100145.44
2022-09-18T02:31:22.584Z,100142.06
2022-09-18T02:33:49.318Z,100135.44
2022-09-18T02:36:46.252Z,100142.16
2022-09-18T02:39:38.275Z,100142.84
2022-09-18T02:42:59.039Z,100140.19
2022-09-18T02:45:36.150Z,100136.44
2022-09-18T02:48:14.384Z,100134.84
2022-09-18T02:50:40.753Z,100142.03
2022-09-18T02:53:22.471Z,100127.50
2022-09-18T02:56:15.559Z,100131.91
2022-09-18T02:58:50.149Z,100145.38
2022-09-18T03:01:18.711Z,100133.00
2022-09-18T03:03:48.193Z,100139.63
2022-09-18T03:06:14.625Z,100138.56
2022-09-18T03:08:41.186Z,100129.78
2022-09-18T03:11:07.664Z,100130.09
2022-09-18T03:13:34.031Z,100129.00
2022-09-18T03:16:00.582Z,100130.91
2022-09-18T03:18:27.380Z,100127.69
2022-09-18T03:20:53.769Z,100129.84
2022-09-18T03:23:20.284Z,100131.44
2022-09-18T03:25:50.124Z,100128.03
2022-09-18T03:28:17.233Z,100133.03
2022-09-18T03:30:44.884Z,100137.31
2022-09-18T03:33:11.353Z,100123.13
2022-09-18T03:35:37.802Z,100131.63
2022-09-18T03:38:04.259Z,100131.53
2022-09-18T03:40:30.791Z,100130.63
2022-09-18T03:42:57.223Z,100130.63
2022-09-18T03:45:23.605Z,100126.16
2022-09-18T03:47:49.977Z,100119.75
2022-09-18T03:50:16.390Z,100123.59
2022-09-18T03:52:45.608Z,100118.34
2022-09-18T03:55:14.285Z,100123.06
2022-09-18T03:57:40.679Z,100124.31
2022-09-18T04:00:07.833Z,100133.22
2022-09-18T04:02:34.268Z,100135.78
2022-09-18T04:05:00.736Z,100128.06
2022-09-18T04:07:27.156Z,100128.53
2022-09-18T04:09:53.562Z,100128.94
2022-09-18T04:12:20.678Z,100129.81
2022-09-18T04:14:47.081Z,100123.47
2022-09-18T04:17:13.500Z,100118.91
2022-09-18T04:19:39.869Z,100122.31
2022-09-18T04:22:06.263Z,100126.09
2022-09-18T04:24:32.683Z,100128.56
2022-09-18T04:26:59.056Z,100130.34
2022-09-18T04:29:25.460Z,100136.94
2022-09-18T04:31:51.967Z,100130.41
2022-09-18T04:34:18.437Z,100133.56
2022-09-18T04:36:44.960Z,100143.63
2022-09-18T04:39:11.396Z,100130.06
2022-09-18T04:41:37.785Z,100137.25
2022-09-18T04:44:04.263Z,100136.22
2022-09-18T04:46:30.751Z,100134.44
2022-09-18T04:48:57.227Z,100133.56
2022-09-18T04:51:23.618Z,100127.53
2022-09-18T04:53:50.115Z,100134.34
2022-09-18T04:56:16.806Z,100127.81
2022-09-18T04:58:43.244Z,100132.19
2022-09-18T05:01:09.788Z,100124.88
2022-09-18T05:03:36.235Z,100130.72
2022-09-18T05:06:02.670Z,100128.13
2022-09-18T05:08:29.843Z,100132.41
2022-09-18T05:10:56.267Z,100138.44
2022-09-18T05:13:22.775Z,100127.72
2022-09-18T05:15:49.223Z,100124.19
2022-09-18T05:18:15.624Z,100122.72
2022-09-18T05:20:42.143Z,100118.91
2022-09-18T05:23:08.626Z,100124.56
2022-09-18T05:25:35.103Z,100126.59
2022-09-18T05:28:03.159Z,100125.09
2022-09-18T05:30:31.136Z,100131.09
2022-09-18T05:32:59.276Z,100120.22
2022-09-18T05:35:27.307Z,100138.69
2022-09-18T05:37:54.850Z,100132.94
2022-09-18T05:40:26.193Z,100127.22
2022-09-18T05:42:53.139Z,100127.09
2022-09-18T05:45:20.739Z,100128.25
2022-09-18T05:47:54.157Z,100122.22
2022-09-18T05:50:21.434Z,100129.22
2022-09-18T05:52:48.328Z,100131.25
2022-09-18T05:55:14.775Z,100132.75
2022-09-18T05:57:41.172Z,100135.03
2022-09-18T06:00:08.188Z,100133.19
2022-09-18T06:02:34.638Z,100133.25
2022-09-18T06:05:01.045Z,100126.91
2022-09-18T06:07:27.437Z,100119.97
2022-09-18T06:09:53.888Z,100136.75
2022-09-18T06:12:20.271Z,100130.50
2022-09-18T06:14:46.645Z,100125.09
2022-09-18T06:17:13.053Z,100130.28
2022-09-18T06:19:39.453Z,100123.66
2022-09-18T06:22:05.888Z,100119.81
2022-09-18T06:24:32.280Z,100123.75
2022-09-18T06:26:58.706Z,100120.81
2022-09-18T06:29:25.095Z,100118.00
2022-09-18T06:31:51.738Z,100122.84
2022-09-18T06:34:18.226Z,100126.78
2022-09-18T06:36:44.603Z,100130.72
2022-09-18T06:39:10.998Z,100127.81
2022-09-18T06:41:37.369Z,100122.75
2022-09-18T06:44:03.793Z,100130.16
2022-09-18T06:46:30.232Z,100138.00
2022-09-18T06:48:56.659Z,100132.94
2022-09-18T06:51:23.059Z,100128.34
2022-09-18T06:53:49.419Z,100137.78
2022-09-18T06:56:15.819Z,100126.66
2022-09-18T06:58:42.204Z,100136.84
2022-09-18T07:01:08.843Z,100138.22
2022-09-18T07:03:35.293Z,100132.69
2022-09-18T07:06:01.685Z,100131.09
2022-09-18T07:08:28.073Z,100131.25
2022-09-18T07:10:54.461Z,100134.66
2022-09-18T07:13:20.841Z,100140.81
2022-09-18T07:15:47.922Z,100139.00
2022-09-18T07:18:14.399Z,100142.25
2022-09-18T07:20:40.839Z,100136.06
2022-09-18T07:23:07.250Z,100140.88
2022-09-18T07:25:34.535Z,100130.16
2022-09-18T07:28:10.357Z,100137.34
2022-09-18T07:30:37.720Z,100134.50
2022-09-18T07:33:06.125Z,100134.78
2022-09-18T07:35:33.571Z,100128.97
2022-09-18T07:38:00.933Z,100130.53
2022-09-18T07:40:28.411Z,100138.22
2022-09-18T07:43:03.098Z,100129.69
2022-09-18T07:45:29.762Z,100127.16
2022-09-18T07:47:56.467Z,100141.50
2022-09-18T07:50:23.391Z,100128.81
2022-09-18T07:52:56.074Z,100135.28
2022-09-18T07:55:24.239Z,100125.69
2022-09-18T07:57:58.682Z,100120.06
2022-09-18T08:00:25.902Z,100125.88
2022-09-18T08:03:03.439Z,100122.94
2022-09-18T08:05:30.362Z,100126.94
2022-09-18T08:08:01.277Z,100125.13
2022-09-18T08:10:27.667Z,100128.34
2022-09-18T08:12:54.466Z,100123.91
2022-09-18T08:15:20.880Z,100116.16
2022-09-18T08:17:47.290Z,100118.34
2022-09-18T08:20:14.229Z,100121.22
2022-09-18T08:22:41.336Z,100119.75
2022-09-18T08:25:09.072Z,100118.63
2022-09-18T08:27:36.869Z,100118.19
2022-09-18T08:30:03.627Z,100113.28
2022-09-18T08:32:30.008Z,100111.94
2022-09-18T08:34:56.489Z,100110.09
2022-09-18T08:37:22.917Z,100111.38
2022-09-18T08:39:49.315Z,100104.03
2022-09-18T08:42:43.419Z,100100.75
2022-09-18T08:45:15.676Z,100106.03
2022-09-18T08:47:50.363Z,100093.34
2022-09-18T08:50:24.505Z,100106.91
2022-09-18T08:52:56.373Z,100124.59
2022-09-18T08:55:45.672Z,100117.47
2022-09-18T08:58:20.080Z,100116.22
2022-09-18T09:00:50.604Z,100111.78
2022-09-18T09:03:19.771Z,100123.44
2022-09-18T09:05:53.882Z,100130.28
2022-09-18T09:08:38.243Z,100125.19
2022-09-18T09:11:34.937Z,100118.53
2022-09-18T09:14:56.712Z,100114.50
2022-09-18T09:17:51.503Z,100117.97
2022-09-18T09:20:25.484Z,100111.16
2022-09-18T09:23:12.798Z,100114.38
2022-09-18T09:25:52.081Z,100112.09
2022-09-18T09:28:23.093Z,100112.47
2022-09-18T09:30:55.890Z,100108.25
2022-09-18T09:33:47.821Z,100108.13
2022-09-18T09:36:18.026Z,100108.72
2022-09-18T09:38:56.564Z,100110.38
2022-09-18T09:41:29.136Z,100106.00
2022-09-18T09:44:20.882Z,100108.22
2022-09-18T09:47:05.773Z,100103.03
2022-09-18T09:49:41.347Z,100101.88
2022-09-18T09:52:28.263Z,100099.19
2022-09-18T09:55:21.238Z,100080.66
2022-09-18T09:57:59.829Z,100074.69
2022-09-18T10:00:27.115Z,100073.94
2022-09-18T10:02:59.570Z,100081.63
2022-09-18T10:05:34.901Z,100081.06
2022-09-18T10:08:15.227Z,100082.41
2022-09-18T10:11:02.324Z,100089.59
2022-09-18T10:13:44.258Z,100080.56
2022-09-18T10:16:22.823Z,100094.16
2022-09-18T10:18:52.459Z,100085.97
2022-09-18T10:21:22.070Z,100094.03
2022-09-18T10:23:53.007Z,100080.78
2022-09-18T10:26:36.261Z,100077.53
2022-09-18T10:29:02.666Z,100071.78
2022-09-18T10:31:48.570Z,100059.59
2022-09-18T10:34:35.303Z,100067.63
2022-09-18T10:37:02.052Z,100063.81
2022-09-18T10:39:31.839Z,100053.75
2022-09-18T10:41:59.935Z,100052.31
2022-09-18T10:44:34.750Z,100051.09
2022-09-18T10:47:19.492Z,100043.13
2022-09-18T10:50:03.079Z,100032.88
2022-09-18T10:52:39.008Z,100036.88
2022-09-18T10:55:09.165Z,100038.81
2022-09-18T10:57:44.621Z,100033.56
2022-09-18T11:00:17.048Z,100023.53
2022-09-18T11:02:46.448Z,100031.28
2022-09-18T11:05:18.628Z,100035.19
2022-09-18T11:07:50.439Z,100040.09
2022-09-18T11:10:23.547Z,100039.81
2022-09-18T11:12:56.371Z,100036.38
2022-09-18T11:15:27.572Z,100041.13
2022-09-18T11:17:57.207Z,100036.25
2022-09-18T11:20:29.093Z,100032.75
2022-09-18T11:23:25.031Z,100030.94
2022-09-18T11:26:09.036Z,100035.41
2022-09-18T11:28:35.489Z,100034.94
2022-09-18T11:31:06.260Z,100026.31
2022-09-18T11:33:39.885Z,100033.59
2022-09-18T11:36:09.941Z,100018.03
2022-09-18T11:38:44.872Z,100026.25
2022-09-18T11:41:13.526Z,100016.97
2022-09-18T11:43:42.936Z,100019.72
2022-09-18T11:46:18.835Z,100014.22
2022-09-18T11:49:02.476Z,100017.00
2022-09-18T11:51:43.988Z,100019.06
2022-09-18T11:54:24.181Z,100026.41
2022-09-18T11:56:53.696Z,100036.50
2022-09-18T11:59:42.536Z,100038.66
2022-09-18T12:02:41.372Z,100036.78
2022-09-18T12:05:13.601Z,100032.38
2022-09-18T12:07:57.712Z,100030.34
2022-09-18T12:11:05.641Z,100044.94
2022-09-18T12:13:45.210Z,100043.63
2022-09-18T12:16:20.633Z,100051.06
2022-09-18T12:19:19.101Z,100052.19
2022-09-18T12:22:08.756Z,100065.09
2022-09-18T12:24:35.151Z,100089.00
2022-09-18T12:27:20.475Z,100093.09
2022-09-18T12:29:50.413Z,100078.41
2022-09-18T12:32:49.136Z,100086.16
2022-09-18T12:35:21.500Z,100086.22
2022-09-18T12:38:06.565Z,100091.03
2022-09-18T12:41:35.050Z,100082.88
2022-09-18T12:44:49.213Z,100079.25
2022-09-18T12:47:41.004Z,100080.66
2022-09-18T12:50:28.600Z,100088.13
2022-09-18T12:53:14.753Z,100099.97
2022-09-18T12:55:50.572Z,100097.78
2022-09-18T12:58:28.984Z,100097.19
2022-09-18T13:00:59.210Z,100091.72
2022-09-18T13:03:39.233Z,100077.22
2022-09-18T13:06:19.977Z,100071.47
2022-09-18T13:08:52.487Z,100069.22
2022-09-18T13:11:31.892Z,100080.94
2022-09-18T13:14:23.817Z,100079.28
2022-09-18T13:16:57.887Z,100076.91
2022-09-18T13:19:35.491Z,100066.53
2022-09-18T13:22:13.104Z,100063.63
2022-09-18T13:24:42.061Z,100063.31
2022-09-18T13:27:13.142Z,100060.88
2022-09-18T13:29:51.384Z,100070.16
2022-09-18T13:32:37.785Z,100080.59
2022-09-18T13:35:13.538Z,100072.41
2022-09-18T13:37:42.703Z,100066.59
2022-09-18T13:40:27.631Z,100066.31
2022-09-18T13:42:54.158Z,100060.25
2022-09-18T13:45:24.271Z,100057.38
2022-09-18T13:48:01.897Z,100050.84
2022-09-18T13:50:30.227Z,100055.91
2022-09-18T13:52:58.376Z,100042.59
2022-09-18T13:55:26.647Z,100037.47
2022-09-18T13:58:30.828Z,100036.31
2022-09-18T14:00:58.690Z,100037.63
2022-09-18T14:03:27.800Z,100023.91
2022-09-18T14:05:54.908Z,100016.69
2022-09-18T14:08:24.295Z,100017.00
2022-09-18T14:11:15.069Z,100005.16
2022-09-18T14:13:54.632Z,100014.47
2022-09-18T14:16:24.508Z,100035.88
2022-09-18T14:18:56.569Z,100041.28
2022-09-18T14:21:43.660Z,100058.31
2022-09-18T14:24:15.826Z,100050.31
2022-09-18T14:26:42.148Z,100048.13
2022-09-18T14:29:08.465Z,100044.06
2022-09-18T14:31:55.494Z,100048.56
2022-09-18T14:34:32.512Z,100038.97
2022-09-18T14:37:01.891Z,100046.94
2022-09-18T14:39:35.753Z,100047.66
2022-09-18T14:42:14.166Z,100048.38
2022-09-18T14:44:50.210Z,100048.97
2022-09-18T14:47:25.836Z,100046.59
2022-09-18T14:49:52.319Z,100050.28
2022-09-18T14:52:25.016Z,100053.16
2022-09-18T14:54:53.854Z,100039.97
2022-09-18T14:57:24.285Z,100030.97
2022-09-18T14:59:54.281Z,100027.81
2022-09-18T15:02:25.336Z,100047.41
2022-09-18T15:04:52.308Z,100034.19
2022-09-18T15:07:21.407Z,100030.81
2022-09-18T15:09:50.621Z,100022.13
2022-09-18T15:12:24.484Z,100013.97
2022-09-18T15:14:51.954Z,99999.53
2022-09-18T15:17:25.844Z,100002.09
2022-09-18T15:20:15.165Z,99983.38
2022-09-18T15:22:41.796Z,99987.09
2022-09-18T15:25:16.188Z,100000.38
2022-09-18T15:27:44.072Z,99992.78
2022-09-18T15:30:25.516Z,99989.16
2022-09-18T15:33:07.273Z,99994.75
2022-09-18T15:35:36.408Z,99989.56
2022-09-18T15:38:07.462Z,99992.88
2022-09-18T15:40:37.258Z,99983.00
2022-09-18T15:43:07.104Z,99980.59
2022-09-18T15:45:35.692Z,99964.66
2022-09-18T15:48:34.189Z,99972.03
2022-09-18T15:51:10.901Z,99976.97
2022-09-18T15:53:38.471Z,99980.88
2022-09-18T15:56:08.933Z,99987.66
2022-09-18T15:58:37.866Z,99983.84
2022-09-18T16:01:06.600Z,99977.69
2022-09-18T16:03:34.243Z,99979.88
2022-09-18T16:06:04.830Z,99973.69
2022-09-18T16:08:37.533Z,99983.34
2022-09-18T16:11:06.354Z,99977.72
2022-09-18T16:13:38.781Z,99977.72
2022-09-18T16:16:08.359Z,99992.00
2022-09-18T16:18:49.491Z,99991.28
2022-09-18T16:21:16.213Z,99990.53
2022-09-18T16:24:21.356Z,99991.63
2022-09-18T16:26:48.272Z,99991.53
2022-09-18T16:29:20.877Z,99989.88
2022-09-18T16:31:47.732Z,99986.50
2022-09-18T16:34:21.706Z,99992.66
2022-09-18T16:36:48.981Z,99985.53
2022-09-18T16:39:18.207Z,99981.28
2022-09-18T16:41:45.446Z,99975.56
2022-09-18T16:44:13.625Z,99978.78
2022-09-18T16:46:48.048Z,99969.41
2022-09-18T16:49:17.891Z,99958.50
2022-09-18T16:51:44.365Z,99955.00
2022-09-18T16:54:10.845Z,99950.75
2022-09-18T16:57:06.432Z,99964.09
2022-09-18T17:02:33.190Z,99957.69
2022-09-18T17:05:01.586Z,99955.03
2022-09-18T17:07:31.043Z,99959.28
2022-09-18T17:09:58.352Z,99955.16
2022-09-18T17:12:25.087Z,99949.63
2022-09-18T17:14:51.700Z,99946.94
2022-09-18T17:17:18.904Z,99948.31
2022-09-18T17:19:45.427Z,99950.94
2022-09-18T17:22:11.965Z,99941.88
2022-09-18T17:24:38.388Z,99956.50
2022-09-18T17:27:04.801Z,99952.53
2022-09-18T17:29:31.288Z,99956.78
2022-09-18T17:31:57.872Z,99963.88
2022-09-18T17:34:24.402Z,99964.47
2022-09-18T17:36:50.793Z,99964.19
2022-09-18T17:39:17.319Z,99955.88
2022-09-18T17:41:44.869Z,99965.22
2022-09-18T17:44:11.389Z,99977.47
2022-09-18T17:46:37.996Z,99985.69
2022-09-18T17:49:49.685Z,99982.78
2022-09-18T17:52:16.621Z,99994.00
2022-09-18T17:54:43.116Z,99989.09
2022-09-18T17:57:12.530Z,99972.34
2022-09-18T17:59:40.107Z,99978.44
2022-09-18T18:02:08.070Z,99969.59
2022-09-18T18:04:35.268Z,99967.25
2022-09-18T18:07:02.876Z,99971.31
2022-09-18T18:09:29.325Z,99961.78
2022-09-18T18:11:55.764Z,99962.94
2022-09-18T18:14:28.227Z,99961.81
2022-09-18T18:16:55.165Z,99960.03
2022-09-18T18:19:21.639Z,99954.47
2022-09-18T18:21:48.084Z,99954.31
2022-09-18T18:24:16.860Z,99966.84
2022-09-18T18:26:44.673Z,99960.38
2022-09-18T18:29:13.470Z,99967.19
2022-09-18T18:31:42.949Z,99962.91
2022-09-18T18:34:10.969Z,99964.06
2022-09-18T18:36:39.941Z,99956.28
2022-09-18T18:39:09.825Z,99962.84
2022-09-18T18:41:37.103Z,99970.53
2022-09-18T18:44:05.597Z,99968.03
2022-09-18T18:46:37.193Z,99968.03
2022-09-18T18:49:09.770Z,99963.63
2022-09-18T18:51:47.170Z,99973.28
2022-09-18T18:54:19.023Z,99970.47
2022-09-18T18:56:46.932Z,99968.66
2022-09-18T18:59:15.966Z,99969.78
2022-09-18T19:01:43.507Z,99971.81
2022-09-18T19:04:16.243Z,99976.53
2022-09-18T19:06:44.095Z,99976.13
2022-09-18T19:09:17.008Z,99977.22
2022-09-18T19:11:49.187Z,99978.25
2022-09-18T19:14:25.843Z,99980.22
2022-09-18T19:16:53.754Z,99976.88
2022-09-18T19:19:23.345Z,99972.72
2022-09-18T19:21:50.141Z,99971.28
2022-09-18T19:24:18.562Z,99974.03
2022-09-18T19:26:45.902Z,99972.03
2022-09-18T19:29:15.618Z,99969.38
2022-09-18T19:31:44.105Z,99967.91
2022-09-18T19:34:16.355Z,99976.25
2022-09-18T19:36:46.594Z,99982.03
2022-09-18T19:39:13.583Z,99982.03
2022-09-18T19:41:55.373Z,99973.69
2022-09-18T19:44:43.051Z,99980.38
2022-09-18T19:47:25.183Z,99971.19
2022-09-18T19:49:52.528Z,99978.75
2022-09-18T19:52:21.943Z,99978.31
2022-09-18T19:54:50.741Z,99972.75
2022-09-18T19:57:18.216Z,99977.56
2022-09-18T19:59:44.947Z,99974.56
2022-09-18T20:02:19.860Z,99984.97
2022-09-18T20:04:46.587Z,99982.66
2022-09-18T20:07:13.968Z,99976.97
2022-09-18T20:09:40.803Z,99984.00
2022-09-18T20:12:08.932Z,99981.81
2022-09-18T20:14:35.370Z,99969.81
2022-09-18T20:17:01.758Z,99965.81
2022-09-18T20:19:28.237Z,99965.72
2022-09-18T20:21:54.646Z,99974.09
2022-09-18T20:24:21.209Z,99976.50
2022-09-18T20:26:47.671Z,99979.41
2022-09-18T20:29:16.715Z,99974.31
2022-09-18T20:31:45.691Z,99971.91
2022-09-18T20:34:12.872Z,99981.81
2022-09-18T20:36:39.257Z,99974.50
2022-09-18T20:39:05.773Z,99977.25
2022-09-18T20:41:32.360Z,99969.38
2022-09-18T20:44:04.740Z,99962.16
2022-09-18T20:46:36.290Z,99969.03
2022-09-18T20:49:03.829Z,99975.28
2022-09-18T20:51:37.633Z,99983.03
2022-09-18T20:54:08.106Z,99975.53
2022-09-18T20:56:41.187Z,99980.28
2022-09-18T20:59:08.773Z,99974.47
2022-09-18T21:01:36.364Z,99971.16
2022-09-18T21:04:03.168Z,99980.44
2022-09-18T21:06:31.960Z,99986.88
2022-09-18T21:08:59.378Z,99989.63
2022-09-18T21:11:28.483Z,99981.03
2022-09-18T21:14:00.756Z,99987.25
2022-09-18T21:16:29.536Z,99992.13
2022-09-18T21:18:59.233Z,99987.50
2022-09-18T21:21:27.530Z,99990.13
2022-09-18T21:24:00.497Z,99999.13
2022-09-18T21:26:33.121Z,99998.41
2022-09-18T21:29:17.895Z,99999.41
2022-09-18T21:31:45.622Z,100000.97
2022-09-18T21:34:23.304Z,100010.81
2022-09-18T21:36:57.477Z,100021.16
2022-09-18T21:39:25.876Z,100014.00
2022-09-18T21:41:53.150Z,100014.97
2022-09-18T21:44:27.109Z,100019.19
2022-09-18T21:46:55.428Z,100023.94
2022-09-18T21:49:22.696Z,100029.50
2022-09-18T21:51:49.960Z,100023.25
2022-09-18T21:54:19.506Z,100017.97
2022-09-18T21:56:51.796Z,100024.28
2022-09-18T21:59:23.306Z,100031.44
2022-09-18T22:01:52.761Z,100032.78
2022-09-18T22:04:24.050Z,100032.56
2022-09-18T22:06:50.545Z,100041.41
2022-09-18T22:09:25.940Z,100035.81
2022-09-18T22:11:52.678Z,100040.00
2022-09-18T22:14:24.802Z,100042.66
2022-09-18T22:16:53.632Z,100043.44
2022-09-18T22:19:20.653Z,100047.78
2022-09-18T22:21:49.120Z,100052.06
2022-09-18T22:24:21.666Z,100051.78
2022-09-18T22:26:56.876Z,100052.28
2022-09-18T22:29:34.531Z,100052.44
2022-09-18T22:32:01.957Z,100052.59
2022-09-18T22:34:30.465Z,100054.34
2022-09-18T22:36:58.941Z,100066.28
2022-09-18T22:39:25.419Z,100067.03
2022-09-18T22:41:52.274Z,100063.22
2022-09-18T22:44:22.617Z,100067.91
2022-09-18T22:46:54.298Z,100078.53
2022-09-18T22:49:22.854Z,100076.94
2022-09-18T22:51:50.424Z,100076.72
2022-09-18T22:54:17.209Z,100072.13
2022-09-18T22:56:49.734Z,100075.75
2022-09-18T22:59:17.792Z,100072.47
2022-09-18T23:01:51.130Z,100078.69
2022-09-18T23:04:19.672Z,100077.84
2022-09-18T23:06:48.100Z,100083.53
2022-09-18T23:09:16.114Z,100083.03
2022-09-18T23:11:44.663Z,100084.25
2022-09-18T23:14:18.473Z,100085.94
2022-09-18T23:16:45.369Z,100081.72
2022-09-18T23:19:26.888Z,100082.53
2022-09-18T23:21:54.244Z,100096.78
2022-09-18T23:24:22.327Z,100093.19
2022-09-18T23:26:51.153Z,100097.81
2022-09-18T23:29:20.850Z,100100.00
2022-09-18T23:31:58.983Z,100099.84
2022-09-18T23:34:29.473Z,100100.94
2022-09-18T23:36:56.163Z,100106.00
2022-09-18T23:39:26.866Z,100104.69
2022-09-18T23:41:53.488Z,100106.41
2022-09-18T23:44:22.009Z,100110.16
2022-09-18T23:46:49.447Z,100116.50
2022-09-18T23:49:18.033Z,100104.19
2022-09-18T23:51:48.235Z,100109.00
2022-09-18T23:54:26.863Z,100115.22
2022-09-18T23:56:54.303Z,100118.84
2022-09-18T23:59:23.201Z,100114.25
